createdAt,value
2018-04-02T00:00:57.650Z,82.50
2018-04-02T00:02:02.781Z,72.00
2018-04-02T00:03:08.031Z,72.00
2018-04-02T00:04:12.951Z,71.50
2018-04-02T00:05:17.821Z,75.50
2018-04-02T00:06:23.023Z,84.50
2018-04-02T00:07:28.106Z,60.00
2018-04-02T00:08:32.847Z,80.00
2018-04-02T00:09:38.667Z,72.50
2018-04-02T00:10:44.458Z,85.50
2018-04-02T00:11:49.868Z,67.00
2018-04-02T00:12:54.707Z,64.50
2018-04-02T00:13:59.775Z,76.00
2018-04-02T00:15:06.239Z,69.00
2018-04-02T00:16:11.769Z,81.00
2018-04-02T00:17:17.449Z,90.50
2018-04-02T00:18:22.385Z,65.50
2018-04-02T00:19:27.250Z,84.00
2018-04-02T00:20:33.526Z,92.50
2018-04-02T00:21:38.698Z,89.00
2018-04-02T00:22:44.336Z,92.50
2018-04-02T00:23:49.569Z,85.00
2018-04-02T00:24:54.768Z,85.50
2018-04-02T00:26:00.024Z,90.00
2018-04-02T00:27:05.417Z,90.00
2018-04-02T00:28:10.652Z,95.00
2018-04-02T00:29:15.770Z,92.00
2018-04-02T00:30:21.176Z,101.50
2018-04-02T00:31:26.209Z,92.50
2018-04-02T00:32:31.375Z,86.00
2018-04-02T00:33:37.122Z,95.00
2018-04-02T00:34:43.091Z,86.00
2018-04-02T00:35:48.648Z,101.00
2018-04-02T00:36:53.971Z,90.00
2018-04-02T00:37:59.307Z,95.50
2018-04-02T00:39:04.294Z,102.50
2018-04-02T00:40:09.397Z,98.50
2018-04-02T00:41:14.389Z,100.50
2018-04-02T00:42:19.789Z,101.00
2018-04-02T00:43:24.565Z,96.50
2018-04-02T00:44:29.726Z,105.00
2018-04-02T00:45:34.879Z,110.50
2018-04-02T00:46:39.894Z,101.00
2018-04-02T00:47:44.953Z,110.00
2018-04-02T00:48:50.530Z,97.00
2018-04-02T00:49:55.675Z,105.00
2018-04-02T00:51:00.831Z,99.00
2018-04-02T00:52:06.329Z,113.50
2018-04-02T00:53:11.342Z,119.50
2018-04-02T00:54:16.557Z,97.00
2018-04-02T00:55:22.410Z,105.00
2018-04-02T00:56:28.269Z,122.50
2018-04-02T00:57:33.940Z,128.00
2018-04-02T00:58:39.172Z,94.50
2018-04-02T00:59:45.127Z,106.50
2018-04-02T01:00:50.764Z,108.50
2018-04-02T01:01:57.390Z,106.50
2018-04-02T01:03:02.788Z,114.00
2018-04-02T01:04:08.500Z,99.50
2018-04-02T01:05:13.848Z,123.50
2018-04-02T01:06:18.978Z,110.00
2018-04-02T01:07:23.910Z,97.00
2018-04-02T01:08:29.698Z,101.00
2018-04-02T01:09:35.443Z,109.50
2018-04-02T01:10:40.595Z,98.50
2018-04-02T01:11:46.556Z,93.00
2018-04-02T01:12:52.028Z,109.50
2018-04-02T01:13:57.114Z,110.00
2018-04-02T01:15:04.295Z,95.00
2018-04-02T01:16:09.635Z,107.50
2018-04-02T01:17:14.951Z,103.50
2018-04-02T01:18:20.088Z,109.50
2018-04-02T01:19:25.169Z,92.00
2018-04-02T01:20:30.627Z,89.00
2018-04-02T01:21:35.602Z,75.00
2018-04-02T01:22:40.712Z,91.50
2018-04-02T01:23:45.790Z,94.50
2018-04-02T01:24:50.964Z,94.00
2018-04-02T01:25:56.720Z,90.00
2018-04-02T01:27:02.288Z,95.00
2018-04-02T01:28:07.375Z,92.50
2018-04-02T01:29:12.673Z,82.50
2018-04-02T01:30:18.232Z,102.00
2018-04-02T01:31:24.625Z,106.00
2018-04-02T01:32:29.598Z,92.00
2018-04-02T01:33:35.107Z,100.00
2018-04-02T01:34:40.536Z,105.00
2018-04-02T01:35:45.835Z,105.00
2018-04-02T01:36:51.094Z,110.00
2018-04-02T01:37:56.272Z,86.00
2018-04-02T01:39:01.283Z,99.50
2018-04-02T01:40:07.047Z,90.50
2018-04-02T01:41:12.354Z,95.00
2018-04-02T01:42:17.675Z,96.00
2018-04-02T01:43:22.884Z,89.00
2018-04-02T01:44:28.051Z,94.00
2018-04-02T01:45:34.057Z,98.50
2018-04-02T01:46:39.173Z,91.00
2018-04-02T01:47:44.382Z,112.50
2018-04-02T01:48:50.296Z,96.00
2018-04-02T01:49:56.127Z,101.50
2018-04-02T01:51:01.875Z,105.00
2018-04-02T01:52:06.983Z,89.50
2018-04-02T01:53:11.945Z,99.50
2018-04-02T01:54:17.192Z,102.00
2018-04-02T01:55:22.485Z,109.00
2018-04-02T01:56:27.421Z,105.50
2018-04-02T01:57:32.638Z,104.00
2018-04-02T01:58:38.262Z,98.00
2018-04-02T01:59:43.185Z,119.50
2018-04-02T02:00:48.558Z,111.50
2018-04-02T02:01:54.616Z,105.00
2018-04-02T02:02:59.866Z,113.50
2018-04-02T02:04:04.718Z,100.50
2018-04-02T02:05:10.275Z,110.00
2018-04-02T02:06:15.331Z,98.50
2018-04-02T02:07:20.320Z,111.00
2018-04-02T02:08:25.686Z,109.00
2018-04-02T02:09:30.467Z,114.00
2018-04-02T02:10:35.386Z,100.00
2018-04-02T02:11:39.989Z,104.50
2018-04-02T02:12:45.392Z,101.50
2018-04-02T02:13:51.558Z,105.00
2018-04-02T02:14:57.337Z,94.50
2018-04-02T02:16:02.560Z,94.50
2018-04-02T02:17:07.328Z,106.50
2018-04-02T02:18:12.398Z,91.50
2018-04-02T02:19:17.519Z,106.00
2018-04-02T02:20:22.591Z,87.00
2018-04-02T02:21:27.250Z,104.50
2018-04-02T02:22:32.951Z,90.50
2018-04-02T02:23:38.125Z,95.00
2018-04-02T02:24:43.437Z,101.00
2018-04-02T02:25:48.663Z,94.50
2018-04-02T02:26:53.466Z,92.00
2018-04-02T02:27:57.965Z,97.50
2018-04-02T02:29:03.018Z,94.50
2018-04-02T02:30:07.801Z,67.00
2018-04-02T02:31:12.686Z,98.00
2018-04-02T02:32:17.706Z,88.50
2018-04-02T02:33:23.032Z,78.50
2018-04-02T02:34:28.962Z,103.50
2018-04-02T02:35:34.455Z,97.50
2018-04-02T02:36:39.977Z,82.50
2018-04-02T02:37:44.732Z,81.50
2018-04-02T02:38:49.791Z,94.50
2018-04-02T02:39:55.947Z,60.00
2018-04-02T02:41:00.402Z,91.50
2018-04-02T02:42:05.265Z,104.00
2018-04-02T02:43:10.266Z,90.00
2018-04-02T02:44:15.039Z,83.00
2018-04-02T02:45:19.973Z,107.00
2018-04-02T02:46:25.068Z,91.00
2018-04-02T02:47:30.430Z,97.00
2018-04-02T02:48:35.477Z,89.50
2018-04-02T02:49:39.890Z,83.50
2018-04-02T02:50:44.718Z,87.50
2018-04-02T02:51:49.112Z,80.50
2018-04-02T02:52:54.476Z,85.00
2018-04-02T02:54:00.617Z,98.50
2018-04-02T02:55:06.157Z,78.00
2018-04-02T02:56:11.159Z,80.00
2018-04-02T02:57:16.019Z,74.00
2018-04-02T02:58:21.183Z,76.50
2018-04-02T02:59:26.312Z,92.00
2018-04-02T03:00:32.199Z,91.00
2018-04-02T03:01:37.468Z,61.00
2018-04-02T03:02:41.994Z,92.50
2018-04-02T03:03:46.943Z,95.00
2018-04-02T03:04:52.655Z,95.00
2018-04-02T03:05:58.123Z,95.50
2018-04-02T03:07:02.574Z,92.50
2018-04-02T03:08:07.641Z,91.50
2018-04-02T03:09:12.727Z,91.00
2018-04-02T03:10:18.050Z,70.50
2018-04-02T03:11:23.084Z,96.00
2018-04-02T03:12:28.148Z,106.00
2018-04-02T03:13:33.518Z,89.50
2018-04-02T03:14:38.079Z,95.00
2018-04-02T03:15:43.072Z,94.00
2018-04-02T03:16:47.664Z,88.00
2018-04-02T03:17:53.390Z,97.00
2018-04-02T03:18:59.234Z,94.00
2018-04-02T03:20:04.153Z,89.50
2018-04-02T03:21:08.866Z,94.00
2018-04-02T03:22:13.208Z,78.00
2018-04-02T03:23:18.126Z,77.00
2018-04-02T03:24:22.901Z,78.50
2018-04-02T03:25:28.398Z,74.50
2018-04-02T03:26:33.593Z,97.50
2018-04-02T03:27:38.398Z,99.50
2018-04-02T03:28:42.865Z,99.00
2018-04-02T03:29:47.845Z,94.00
2018-04-02T03:30:52.672Z,94.50
2018-04-02T03:31:58.259Z,93.50
2018-04-02T03:33:03.097Z,94.50
2018-04-02T03:34:07.942Z,80.00
2018-04-02T03:35:13.290Z,77.50
2018-04-02T03:36:18.104Z,88.50
2018-04-02T03:37:23.663Z,79.00
2018-04-02T03:38:29.083Z,95.00
2018-04-02T03:39:34.488Z,95.00
2018-04-02T03:40:39.862Z,87.50
2018-04-02T03:41:44.546Z,84.00
2018-04-02T03:42:48.894Z,94.00
2018-04-02T03:43:53.252Z,90.00
2018-04-02T03:44:58.244Z,88.50
2018-04-02T03:46:02.871Z,86.00
2018-04-02T03:47:07.973Z,75.50
2018-04-02T03:48:13.187Z,81.50
2018-04-02T03:49:18.185Z,86.00
2018-04-02T03:50:23.114Z,102.50
2018-04-02T03:51:27.929Z,87.50
2018-04-02T03:52:32.266Z,81.50
2018-04-02T03:53:37.206Z,95.00
2018-04-02T03:54:42.192Z,83.00
2018-04-02T03:55:47.850Z,84.50
2018-04-02T03:56:53.028Z,96.00
2018-04-02T03:57:59.207Z,105.50
2018-04-02T03:59:04.598Z,103.50
2018-04-02T04:00:09.642Z,83.00
2018-04-02T04:01:15.456Z,80.50
2018-04-02T04:02:19.820Z,77.00
2018-04-02T04:03:24.485Z,77.50
2018-04-02T04:04:30.000Z,75.00
2018-04-02T04:05:34.949Z,84.50
2018-04-02T04:06:39.372Z,79.00
2018-04-02T04:07:44.053Z,95.00
2018-04-02T04:08:48.795Z,97.00
2018-04-02T04:09:53.891Z,91.00
2018-04-02T04:11:00.808Z,100.50
2018-04-02T04:12:05.201Z,87.00
2018-04-02T04:13:10.102Z,100.00
2018-04-02T04:14:14.705Z,88.50
2018-04-02T04:15:19.263Z,99.50
2018-04-02T04:16:23.606Z,75.50
2018-04-02T04:17:28.934Z,100.00
2018-04-02T04:18:33.572Z,75.50
2018-04-02T04:19:38.806Z,92.00
2018-04-02T04:20:43.467Z,80.00
2018-04-02T04:21:48.025Z,81.00
2018-04-02T04:22:52.784Z,86.50
2018-04-02T04:23:57.809Z,96.00
2018-04-02T04:25:02.560Z,90.50
2018-04-02T04:26:07.239Z,93.50
2018-04-02T04:27:11.834Z,87.00
2018-04-02T04:29:23.326Z,87.50
2018-04-02T04:30:28.576Z,76.00
2018-04-02T04:31:33.551Z,83.50
2018-04-02T04:32:39.578Z,86.50
2018-04-02T04:33:44.630Z,88.50
2018-04-02T04:34:49.753Z,85.50
2018-04-02T04:35:55.563Z,88.00
2018-04-02T04:37:00.112Z,87.50
2018-04-02T04:38:06.624Z,83.00
2018-04-02T04:39:11.268Z,82.50
2018-04-02T04:40:16.861Z,98.00
2018-04-02T04:41:21.638Z,98.50
2018-04-02T04:42:26.257Z,90.00
2018-04-02T04:43:31.379Z,97.50
2018-04-02T04:44:36.461Z,85.00
2018-04-02T04:45:42.186Z,98.00
2018-04-02T04:46:47.464Z,85.50
2018-04-02T04:47:52.503Z,83.50
2018-04-02T04:48:57.749Z,77.50
2018-04-02T04:50:03.787Z,84.00
2018-04-02T04:51:09.273Z,92.50
2018-04-02T04:52:14.000Z,90.00
2018-04-02T04:53:18.929Z,82.50
2018-04-02T04:54:24.196Z,75.50
2018-04-02T04:55:28.538Z,72.00
2018-04-02T04:56:33.388Z,82.00
2018-04-02T04:57:37.874Z,80.00
2018-04-02T04:58:43.365Z,77.00
2018-04-02T04:59:48.442Z,91.00
2018-04-02T05:00:53.574Z,93.00
2018-04-02T05:01:58.972Z,65.00
2018-04-02T05:03:03.921Z,91.50
2018-04-02T05:04:08.852Z,72.00
2018-04-02T05:05:14.132Z,88.50
2018-04-02T05:06:18.869Z,70.50
2018-04-02T05:07:23.642Z,95.00
2018-04-02T05:08:28.051Z,95.00
2018-04-02T05:09:32.685Z,101.00
2018-04-02T05:10:37.254Z,104.00
2018-04-02T05:11:41.850Z,111.50
2018-04-02T05:12:46.485Z,75.00
2018-04-02T05:13:51.978Z,77.00
2018-04-02T05:14:56.408Z,80.50
2018-04-02T05:16:02.558Z,98.00
2018-04-02T05:17:07.008Z,103.50
2018-04-02T05:18:12.839Z,91.50
2018-04-02T05:19:18.004Z,95.00
2018-04-02T05:20:22.389Z,76.50
2018-04-02T05:21:27.074Z,82.00
2018-04-02T05:22:31.832Z,83.50
2018-04-02T05:23:36.244Z,78.50
2018-04-02T05:24:40.871Z,76.00
2018-04-02T05:25:45.864Z,65.00
2018-04-02T05:26:50.657Z,64.50
2018-04-02T05:27:55.224Z,92.00
2018-04-02T05:29:00.771Z,81.50
2018-04-02T05:30:08.367Z,84.00
2018-04-02T05:31:13.624Z,73.50
2018-04-02T05:32:18.336Z,74.50
2018-04-02T05:33:23.526Z,83.50
2018-04-02T05:34:28.371Z,85.50
2018-04-02T05:35:33.432Z,84.00
2018-04-02T05:36:38.510Z,78.00
2018-04-02T05:37:43.634Z,92.00
2018-04-02T05:38:48.804Z,76.50
2018-04-02T05:39:53.910Z,79.50
2018-04-02T05:40:59.151Z,82.50
2018-04-02T05:42:04.660Z,87.00
2018-04-02T05:43:10.554Z,81.00
2018-04-02T05:44:15.487Z,71.00
2018-04-02T05:45:21.328Z,89.50
2018-04-02T05:46:26.887Z,89.50
2018-04-02T05:47:31.272Z,87.00
2018-04-02T05:48:36.148Z,80.00
2018-04-02T05:49:41.908Z,89.00
2018-04-02T05:50:47.001Z,101.00
2018-04-02T05:51:52.332Z,79.50
2018-04-02T05:52:56.830Z,82.50
2018-04-02T05:54:02.874Z,102.00
2018-04-02T05:55:08.823Z,95.50
2018-04-02T05:56:13.890Z,79.50
2018-04-02T05:57:18.414Z,90.50
2018-04-02T05:58:23.917Z,91.00
2018-04-02T05:59:29.045Z,93.00
2018-04-02T06:00:34.748Z,91.00
2018-04-02T06:01:40.018Z,89.00
2018-04-02T06:02:44.628Z,74.50
2018-04-02T06:03:49.792Z,89.50
2018-04-02T06:04:55.105Z,86.00
2018-04-02T06:05:59.661Z,92.50
2018-04-02T06:07:04.337Z,91.50
2018-04-02T06:08:11.673Z,98.00
2018-04-02T06:09:16.935Z,93.50
2018-04-02T06:10:22.101Z,91.50
2018-04-02T06:11:27.121Z,94.00
2018-04-02T06:12:31.648Z,90.50
2018-04-02T06:13:37.249Z,82.00
2018-04-02T06:14:42.577Z,99.00
2018-04-02T06:15:48.005Z,98.50
2018-04-02T06:16:52.974Z,97.00
2018-04-02T06:17:57.965Z,95.50
2018-04-02T06:19:03.648Z,95.00
2018-04-02T06:20:10.469Z,75.00
2018-04-02T06:21:16.122Z,99.00
2018-04-02T06:22:21.375Z,78.00
2018-04-02T06:23:26.675Z,91.50
2018-04-02T06:24:31.341Z,95.50
2018-04-02T06:25:36.434Z,85.50
2018-04-02T06:26:41.467Z,97.50
2018-04-02T06:27:46.833Z,94.50
2018-04-02T06:28:51.879Z,101.00
2018-04-02T06:29:57.303Z,89.00
2018-04-02T06:31:02.549Z,102.00
2018-04-02T06:32:07.784Z,94.50
2018-04-02T06:33:14.292Z,88.00
2018-04-02T06:34:19.924Z,98.00
2018-04-02T06:35:25.510Z,100.00
2018-04-02T06:36:30.291Z,94.00
2018-04-02T06:37:35.248Z,81.50
2018-04-02T06:38:40.777Z,73.50
2018-04-02T06:39:45.979Z,100.00
2018-04-02T06:40:50.914Z,104.50
2018-04-02T06:41:55.494Z,94.00
2018-04-02T06:43:01.675Z,92.00
2018-04-02T06:44:08.285Z,97.00
2018-04-02T06:45:15.896Z,96.50
2018-04-02T06:46:20.991Z,89.00
2018-04-02T06:47:25.950Z,104.00
2018-04-02T06:48:31.319Z,98.00
2018-04-02T06:49:36.393Z,94.00
2018-04-02T06:50:42.194Z,98.50
2018-04-02T06:51:47.574Z,94.50
2018-04-02T06:52:53.196Z,101.00
2018-04-02T06:53:58.200Z,94.50
2018-04-02T06:55:04.388Z,96.00
2018-04-02T06:56:10.401Z,96.50
2018-04-02T06:57:15.871Z,98.50
2018-04-02T06:58:21.139Z,100.00
2018-04-02T06:59:26.235Z,78.00
2018-04-02T07:00:31.800Z,111.50
2018-04-02T07:01:36.956Z,105.00
2018-04-02T07:02:42.086Z,106.00
2018-04-02T07:03:47.567Z,108.00
2018-04-02T07:04:52.782Z,91.50
2018-04-02T07:05:57.923Z,88.00
2018-04-02T07:07:03.196Z,95.00
2018-04-02T07:08:09.014Z,100.00
2018-04-02T07:09:15.206Z,75.50
2018-04-02T07:10:20.337Z,107.00
2018-04-02T07:11:25.385Z,99.00
2018-04-02T07:12:30.268Z,109.00
2018-04-02T07:13:35.485Z,99.50
2018-04-02T07:14:40.833Z,103.00
2018-04-02T07:15:46.528Z,95.50
2018-04-02T07:16:51.952Z,84.50
2018-04-02T07:17:57.209Z,102.50
2018-04-02T07:19:02.472Z,108.00
2018-04-02T07:20:07.945Z,97.50
2018-04-02T07:21:14.021Z,90.50
2018-04-02T07:22:19.567Z,70.00
2018-04-02T07:23:24.894Z,96.50
2018-04-02T07:24:30.085Z,100.50
2018-04-02T07:25:35.337Z,104.50
2018-04-02T07:26:40.428Z,97.00
2018-04-02T07:27:45.603Z,94.00
2018-04-02T07:28:50.937Z,97.50
2018-04-02T07:29:56.230Z,90.50
2018-04-02T07:31:01.582Z,110.50
2018-04-02T07:32:06.568Z,91.00
2018-04-02T07:33:11.678Z,97.00
2018-04-02T07:34:17.221Z,90.00
2018-04-02T07:35:22.191Z,106.00
2018-04-02T07:36:27.051Z,85.00
2018-04-02T07:37:32.090Z,100.00
2018-04-02T07:38:37.719Z,56.00
2018-04-02T07:39:42.739Z,97.00
2018-04-02T07:40:48.267Z,48.50
2018-04-02T07:41:53.334Z,63.00
2018-04-02T07:42:58.404Z,75.00
2018-04-02T07:44:03.459Z,78.50
2018-04-02T07:45:08.832Z,76.00
2018-04-02T07:46:13.989Z,76.50
2018-04-02T07:47:19.613Z,92.50
2018-04-02T07:48:25.801Z,87.50
2018-04-02T07:49:31.059Z,88.50
2018-04-02T07:50:36.242Z,95.00
2018-04-02T07:51:41.373Z,90.00
2018-04-02T07:52:46.550Z,96.00
2018-04-02T07:55:08.489Z,87.50
2018-04-02T07:56:13.899Z,76.00
2018-04-02T07:57:20.002Z,99.50
2018-04-02T07:58:25.789Z,96.00
2018-04-02T07:59:31.088Z,92.00
2018-04-02T08:00:37.172Z,96.50
2018-04-02T08:01:42.532Z,73.00
2018-04-02T08:02:48.286Z,71.00
2018-04-02T08:03:54.353Z,46.00
2018-04-02T08:05:00.080Z,41.50
2018-04-02T08:06:05.162Z,59.00
2018-04-02T08:07:10.637Z,38.50
2018-04-02T08:08:16.864Z,44.50
2018-04-02T08:09:22.669Z,66.50
2018-04-02T08:10:27.979Z,57.50
2018-04-02T08:11:33.339Z,46.50
2018-04-02T08:12:38.305Z,62.50
2018-04-02T08:13:43.475Z,48.50
2018-04-02T08:14:48.360Z,72.50
2018-04-02T08:15:53.428Z,58.00
2018-04-02T08:16:58.218Z,74.00
2018-04-02T08:18:03.180Z,60.00
2018-04-02T08:19:08.186Z,56.50
2018-04-02T08:20:13.210Z,63.50
2018-04-02T08:21:18.191Z,62.50
2018-04-02T08:22:23.477Z,58.00
2018-04-02T08:23:28.413Z,58.00
2018-04-02T08:24:33.210Z,60.00
2018-04-02T08:25:38.443Z,45.00
2018-04-02T08:26:43.040Z,35.50
2018-04-02T08:27:48.312Z,61.50
2018-04-02T08:28:53.731Z,59.00
2018-04-02T08:29:58.444Z,56.50
2018-04-02T08:31:03.788Z,61.50
2018-04-02T08:32:09.368Z,48.00
2018-04-02T08:33:14.228Z,54.50
2018-04-02T08:34:19.879Z,66.50
2018-04-02T08:35:25.566Z,49.00
2018-04-02T08:36:30.352Z,53.00
2018-04-02T08:37:35.463Z,52.00
2018-04-02T08:38:40.493Z,70.50
2018-04-02T08:39:45.920Z,91.00
2018-04-02T08:40:51.118Z,50.00
2018-04-02T08:41:56.441Z,53.00
2018-04-02T08:43:01.729Z,41.00
2018-04-02T08:44:06.550Z,45.00
2018-04-02T08:45:13.037Z,63.50
2018-04-02T08:46:18.167Z,38.00
2018-04-02T08:47:23.569Z,40.00
2018-04-02T08:48:29.878Z,43.00
2018-04-02T08:49:34.763Z,51.50
2018-04-02T08:50:39.421Z,49.00
2018-04-02T08:51:44.269Z,38.50
2018-04-02T08:52:49.369Z,36.00
2018-04-02T08:53:54.193Z,39.00
2018-04-02T08:54:59.076Z,40.50
2018-04-02T08:56:04.169Z,44.00
2018-04-02T08:57:09.114Z,47.00
2018-04-02T08:58:14.044Z,44.50
2018-04-02T08:59:19.508Z,39.50
2018-04-02T09:00:24.804Z,39.50
2018-04-02T09:01:29.638Z,33.00
2018-04-02T09:02:35.179Z,34.00
2018-04-02T09:03:40.051Z,30.50
2018-04-02T09:04:44.779Z,43.00
2018-04-02T09:05:49.549Z,46.00
2018-04-02T09:06:54.475Z,52.50
2018-04-02T09:07:59.706Z,59.00
2018-04-02T09:09:05.230Z,45.00
2018-04-02T09:10:09.964Z,45.50
2018-04-02T09:11:14.646Z,35.00
2018-04-02T09:12:19.439Z,38.00
2018-04-02T09:13:25.220Z,33.00
2018-04-02T09:14:30.494Z,30.00
2018-04-02T09:15:35.493Z,45.00
2018-04-02T09:16:40.210Z,49.50
2018-04-02T09:17:45.507Z,50.50
2018-04-02T09:18:50.795Z,52.00
2018-04-02T09:19:55.998Z,51.50
2018-04-02T09:21:00.772Z,40.00
2018-04-02T09:22:05.537Z,35.00
2018-04-02T09:23:10.654Z,31.50
2018-04-02T09:24:15.525Z,34.00
2018-04-02T09:25:20.575Z,36.00
2018-04-02T09:26:25.748Z,40.50
2018-04-02T09:27:31.217Z,39.00
2018-04-02T09:28:35.866Z,39.50
2018-04-02T09:29:40.706Z,34.00
2018-04-02T09:30:45.902Z,49.00
2018-04-02T09:31:50.749Z,40.50
2018-04-02T09:32:56.360Z,46.00
2018-04-02T09:34:01.125Z,34.00
2018-04-02T09:35:05.991Z,36.00
2018-04-02T09:36:10.757Z,34.50
2018-04-02T09:37:15.779Z,35.00
2018-04-02T09:38:20.682Z,34.00
2018-04-02T09:39:26.067Z,28.00
2018-04-02T09:40:31.132Z,28.00
2018-04-02T09:41:35.931Z,46.00
2018-04-02T09:42:40.629Z,40.50
2018-04-02T09:43:45.305Z,47.00
2018-04-02T09:44:50.101Z,39.50
2018-04-02T09:45:55.714Z,48.00
2018-04-02T09:47:01.079Z,47.00
2018-04-02T09:48:06.051Z,43.50
2018-04-02T09:49:10.918Z,36.50
2018-04-02T09:50:16.225Z,41.00
2018-04-02T09:51:21.079Z,31.50
2018-04-02T09:52:25.892Z,42.50
2018-04-02T09:53:30.866Z,49.00
2018-04-02T09:54:36.915Z,44.50
2018-04-02T09:55:41.946Z,39.50
2018-04-02T09:56:47.586Z,36.50
2018-04-02T09:57:52.280Z,49.00
2018-04-02T09:58:57.007Z,51.50
2018-04-02T10:00:01.760Z,44.00
2018-04-02T10:01:11.065Z,46.00
2018-04-02T10:02:16.689Z,37.50
2018-04-02T10:03:25.860Z,44.00
2018-04-02T10:04:31.871Z,51.50
2018-04-02T10:05:38.005Z,46.50
2018-04-02T10:06:42.822Z,50.50
2018-04-02T10:07:47.648Z,40.00
2018-04-02T10:08:52.844Z,35.50
2018-04-02T10:09:57.602Z,49.50
2018-04-02T10:11:02.293Z,34.00
2018-04-02T10:12:07.087Z,45.00
2018-04-02T10:13:12.226Z,55.00
2018-04-02T10:14:17.309Z,39.00
2018-04-02T10:15:23.009Z,48.50
2018-04-02T10:16:27.904Z,50.50
2018-04-02T10:17:32.943Z,42.00
2018-04-02T10:18:37.752Z,83.50
2018-04-02T10:19:43.607Z,61.00
2018-04-02T10:20:48.699Z,67.50
2018-04-02T10:21:54.156Z,32.00
2018-04-02T10:22:59.091Z,69.50
2018-04-02T10:24:03.968Z,44.50
2018-04-02T10:25:08.692Z,50.00
2018-04-02T10:26:13.434Z,62.50
2018-04-02T10:27:18.093Z,50.50
2018-04-02T10:28:23.169Z,44.50
2018-04-02T10:29:27.885Z,52.50
2018-04-02T10:30:32.804Z,72.50
2018-04-02T10:31:38.117Z,76.50
2018-04-02T10:32:43.216Z,71.00
2018-04-02T10:33:48.132Z,55.00
2018-04-02T10:34:53.270Z,68.50
2018-04-02T10:35:58.117Z,34.50
2018-04-02T10:37:02.884Z,40.50
2018-04-02T10:38:07.845Z,65.50
2018-04-02T10:39:12.766Z,87.50
2018-04-02T10:40:17.557Z,63.00
2018-04-02T10:41:22.419Z,65.00
2018-04-02T10:42:27.842Z,51.50
2018-04-02T10:43:33.510Z,54.00
2018-04-02T10:44:38.851Z,68.50
2018-04-02T10:45:44.118Z,63.00
2018-04-02T10:46:49.111Z,57.00
2018-04-02T10:47:54.269Z,72.00
2018-04-02T10:48:59.645Z,66.00
2018-04-02T10:50:04.594Z,89.00
2018-04-02T10:51:09.532Z,75.00
2018-04-02T10:52:14.768Z,57.50
2018-04-02T10:53:19.543Z,89.50
2018-04-02T10:54:24.459Z,58.00
2018-04-02T10:55:29.251Z,67.00
2018-04-02T10:56:34.803Z,67.50
2018-04-02T10:57:40.388Z,54.50
2018-04-02T10:58:45.539Z,50.50
2018-04-02T10:59:50.454Z,36.50
2018-04-02T11:00:55.318Z,59.00
2018-04-02T11:02:00.612Z,54.00
2018-04-02T11:03:05.345Z,61.00
2018-04-02T11:04:09.949Z,117.50
2018-04-02T11:05:14.741Z,102.50
2018-04-02T11:06:19.759Z,82.00
2018-04-02T11:07:24.647Z,85.00
2018-04-02T11:08:29.458Z,70.00
2018-04-02T11:09:34.739Z,70.50
2018-04-02T11:10:39.596Z,70.50
2018-04-02T11:11:44.733Z,59.00
2018-04-02T11:12:49.959Z,67.50
2018-04-02T11:13:54.821Z,83.50
2018-04-02T11:14:59.568Z,77.50
2018-04-02T11:16:05.258Z,59.00
2018-04-02T11:17:09.922Z,56.50
2018-04-02T11:18:14.886Z,70.50
2018-04-02T11:19:19.750Z,76.50
2018-04-02T11:20:24.507Z,60.50
2018-04-02T11:21:29.371Z,68.50
2018-04-02T11:22:34.350Z,74.00
2018-04-02T11:23:40.713Z,98.00
2018-04-02T11:24:46.175Z,103.50
2018-04-02T11:25:50.988Z,88.50
2018-04-02T11:26:55.759Z,84.50
2018-04-02T11:28:00.721Z,63.00
2018-04-02T11:29:05.842Z,62.00
2018-04-02T11:31:20.710Z,62.00
2018-04-02T11:32:26.012Z,62.50
2018-04-02T11:33:30.990Z,56.00
2018-04-02T11:34:35.737Z,59.50
2018-04-02T11:35:40.428Z,64.00
2018-04-02T11:36:45.060Z,72.50
2018-04-02T11:37:49.725Z,41.50
2018-04-02T11:38:54.473Z,89.00
2018-04-02T11:39:59.212Z,81.00
2018-04-02T11:41:04.003Z,71.00
2018-04-02T11:42:08.572Z,48.00
2018-04-02T11:43:13.641Z,75.00
2018-04-02T11:44:18.384Z,81.50
2018-04-02T11:45:23.162Z,76.50
2018-04-02T11:46:27.929Z,65.00
2018-04-02T11:47:32.572Z,59.50
2018-04-02T11:48:37.391Z,74.00
2018-04-02T11:49:42.353Z,51.50
2018-04-02T11:50:47.208Z,60.00
2018-04-02T11:51:52.315Z,64.00
2018-04-02T11:52:57.474Z,72.50
2018-04-02T11:54:02.482Z,49.50
2018-04-02T11:55:07.467Z,73.00
2018-04-02T11:56:12.546Z,102.00
2018-04-02T11:57:17.276Z,64.50
2018-04-02T11:58:22.416Z,95.00
2018-04-02T11:59:27.154Z,46.00
2018-04-02T12:00:32.587Z,65.50
2018-04-02T12:01:37.924Z,98.50
2018-04-02T12:02:44.188Z,77.50
2018-04-02T12:03:50.253Z,54.00
2018-04-02T12:04:55.429Z,48.50
2018-04-02T12:06:00.162Z,71.00
2018-04-02T12:07:04.993Z,95.50
2018-04-02T12:08:10.673Z,84.00
2018-04-02T12:09:15.847Z,58.50
2018-04-02T12:10:20.944Z,60.50
2018-04-02T12:11:25.916Z,117.00
2018-04-02T12:12:30.733Z,89.50
2018-04-02T12:13:36.090Z,49.00
2018-04-02T12:14:41.152Z,50.50
2018-04-02T12:15:46.028Z,58.50
2018-04-02T12:16:51.373Z,88.00
2018-04-02T12:17:56.231Z,86.00
2018-04-02T12:19:00.961Z,76.50
2018-04-02T12:20:05.935Z,70.00
2018-04-02T12:21:10.984Z,68.00
2018-04-02T12:22:15.598Z,52.50
2018-04-02T12:23:20.745Z,86.00
2018-04-02T12:24:25.591Z,71.50
2018-04-02T12:25:30.281Z,59.00
2018-04-02T12:26:35.038Z,113.00
2018-04-02T12:27:40.422Z,61.50
2018-04-02T12:28:46.003Z,84.50
2018-04-02T12:29:50.938Z,62.00
2018-04-02T12:30:56.185Z,70.50
2018-04-02T12:32:00.828Z,88.50
2018-04-02T12:33:06.147Z,104.50
2018-04-02T12:34:10.834Z,68.50
2018-04-02T12:35:15.646Z,93.50
2018-04-02T12:36:20.546Z,56.00
2018-04-02T12:37:25.294Z,86.00
2018-04-02T12:38:30.016Z,91.00
2018-04-02T12:39:35.274Z,69.00
2018-04-02T12:40:40.016Z,109.00
2018-04-02T12:41:44.715Z,121.00
2018-04-02T12:42:50.246Z,86.00
2018-04-02T12:43:55.975Z,85.50
2018-04-02T12:45:00.818Z,72.00
2018-04-02T12:46:07.188Z,98.50
2018-04-02T12:47:11.868Z,107.50
2018-04-02T12:48:16.543Z,92.00
2018-04-02T12:49:21.411Z,95.50
2018-04-02T12:50:26.073Z,107.00
2018-04-02T12:51:30.798Z,88.00
2018-04-02T12:52:35.818Z,83.00
2018-04-02T12:53:40.802Z,125.50
2018-04-02T12:54:46.512Z,98.50
2018-04-02T12:55:52.317Z,94.00
2018-04-02T12:56:57.217Z,62.50
2018-04-02T12:58:01.981Z,100.00
2018-04-02T12:59:06.598Z,85.50
2018-04-02T13:00:13.731Z,92.50
2018-04-02T13:01:18.682Z,85.00
2018-04-02T13:02:23.387Z,95.50
2018-04-02T13:03:28.280Z,98.00
2018-04-02T13:04:33.503Z,93.00
2018-04-02T13:05:38.234Z,94.00
2018-04-02T13:06:43.524Z,106.00
2018-04-02T13:07:48.955Z,94.00
2018-04-02T13:08:54.642Z,113.00
2018-04-02T13:09:59.256Z,89.00
2018-04-02T13:11:04.267Z,82.00
2018-04-02T13:12:09.249Z,106.50
2018-04-02T13:13:14.012Z,101.00
2018-04-02T13:14:18.800Z,74.00
2018-04-02T13:15:23.610Z,137.50
2018-04-02T13:16:28.235Z,66.50
2018-04-02T13:17:32.846Z,106.50
2018-04-02T13:18:37.614Z,90.50
2018-04-02T13:19:42.811Z,106.00
2018-04-02T13:20:47.608Z,109.00
2018-04-02T13:21:53.105Z,53.00
2018-04-02T13:22:58.872Z,97.00
2018-04-02T13:24:03.937Z,71.50
2018-04-02T13:25:08.649Z,76.50
2018-04-02T13:26:13.399Z,128.00
2018-04-02T13:27:18.100Z,86.50
2018-04-02T13:28:22.854Z,99.50
2018-04-02T13:29:27.547Z,123.00
2018-04-02T13:30:32.848Z,77.50
2018-04-02T13:31:37.657Z,62.50
2018-04-02T13:32:42.814Z,79.50
2018-04-02T13:33:48.107Z,87.50
2018-04-02T13:34:52.937Z,103.00
2018-04-02T13:35:57.558Z,99.00
2018-04-02T13:37:02.525Z,99.50
2018-04-02T13:38:07.235Z,48.50
2018-04-02T13:39:11.939Z,56.00
2018-04-02T13:40:16.561Z,62.50
2018-04-02T13:41:21.504Z,109.50
2018-04-02T13:42:26.442Z,87.50
2018-04-02T13:43:31.806Z,121.00
2018-04-02T13:44:36.514Z,92.00
2018-04-02T13:45:41.819Z,108.50
2018-04-02T13:46:47.755Z,56.00
2018-04-02T13:47:52.729Z,72.50
2018-04-02T13:48:57.570Z,66.00
2018-04-02T13:50:02.611Z,80.50
2018-04-02T13:51:07.282Z,74.00
2018-04-02T13:52:11.937Z,58.50
2018-04-02T13:53:16.709Z,135.50
2018-04-02T13:54:21.685Z,117.50
2018-04-02T13:55:26.711Z,136.00
2018-04-02T13:56:31.764Z,124.00
2018-04-02T13:57:36.707Z,116.50
2018-04-02T13:58:41.527Z,101.50